sensor_id;sensor_type;location;lat;lon;timestamp;pressure;altitude;pressure_sealevel;temperature;humidity
34925;BME280;21130;51.728;8.748;2022-08-06T00:02:09;101205.88;;;10.15;100.00
34925;BME280;21130;51.728;8.748;2022-08-06T00:04:35;101220.38;;;10.17;100.00
34925;BME280;21130;51.728;8.748;2022-08-06T00:07:00;101218.91;;;10.15;100.00
34925;BME280;21130;51.728;8.748;2022-08-06T00:09:26;101220.22;;;10.12;100.00
34925;BME280;21130;51.728;8.748;2022-08-06T00:11:59;101219.56;;;10.10;100.00
34925;BME280;21130;51.728;8.748;2022-08-06T00:14:27;101220.88;;;10.08;100.00
34925;BME280;21130;51.728;8.748;2022-08-06T00:16:52;101217.09;;;10.02;100.00
34925;BME280;21130;51.728;8.748;2022-08-06T00:19:18;101232.88;;;10.02;100.00
34925;BME280;21130;51.728;8.748;2022-08-06T00:21:43;101237.78;;;10.00;100.00
34925;BME280;21130;51.728;8.748;2022-08-06T00:24:08;101233.75;;;9.95;100.00
34925;BME280;21130;51.728;8.748;2022-08-06T00:26:34;101235.06;;;9.93;100.00
34925;BME280;21130;51.728;8.748;2022-08-06T00:31:26;101242.59;;;9.86;100.00
34925;BME280;21130;51.728;8.748;2022-08-06T00:33:52;101246.22;;;9.86;100.00
34925;BME280;21130;51.728;8.748;2022-08-06T00:36:17;101248.34;;;9.84;100.00
34925;BME280;21130;51.728;8.748;2022-08-06T00:38:43;101252.19;;;9.83;100.00
34925;BME280;21130;51.728;8.748;2022-08-06T00:41:08;101254.09;;;9.83;100.00
34925;BME280;21130;51.728;8.748;2022-08-06T00:43:33;101258.59;;;9.84;100.00
34925;BME280;21130;51.728;8.748;2022-08-06T00:45:59;101257.13;;;9.81;100.00
34925;BME280;21130;51.728;8.748;2022-08-06T00:48:24;101269.94;;;9.76;100.00
34925;BME280;21130;51.728;8.748;2022-08-06T00:50:50;101265.66;;;9.73;100.00
34925;BME280;21130;51.728;8.748;2022-08-06T00:53:15;101259.50;;;9.71;100.00
34925;BME280;21130;51.728;8.748;2022-08-06T00:55:40;101266.75;;;9.72;100.00
34925;BME280;21130;51.728;8.748;2022-08-06T00:58:06;101268.03;;;9.69;100.00
34925;BME280;21130;51.728;8.748;2022-08-06T01:00:35;101267.41;;;9.67;100.00
34925;BME280;21130;51.728;8.748;2022-08-06T01:03:00;101278.94;;;9.64;100.00
34925;BME280;21130;51.728;8.748;2022-08-06T01:05:25;101273.59;;;9.63;100.00
34925;BME280;21130;51.728;8.748;2022-08-06T01:07:51;101281.31;;;9.61;100.00
34925;BME280;21130;51.728;8.748;2022-08-06T01:10:16;101273.19;;;9.59;100.00
34925;BME280;21130;51.728;8.748;2022-08-06T01:12:41;101280.88;;;9.57;100.00
34925;BME280;21130;51.728;8.748;2022-08-06T01:15:07;101284.72;;;9.56;100.00
34925;BME280;21130;51.728;8.748;2022-08-06T01:17:38;101279.41;;;9.48;100.00
34925;BME280;21130;51.728;8.748;2022-08-06T01:26:02;101280.94;;;9.37;100.00
34925;BME280;21130;51.728;8.748;2022-08-06T01:28:42;101285.25;;;9.33;100.00
34925;BME280;21130;51.728;8.748;2022-08-06T01:31:11;101286.72;;;9.29;100.00
34925;BME280;21130;51.728;8.748;2022-08-06T01:33:50;101287.38;;;9.24;100.00
34925;BME280;21130;51.728;8.748;2022-08-06T01:36:22;101288.47;;;9.23;100.00
34925;BME280;21130;51.728;8.748;2022-08-06T01:38:51;101285.69;;;9.17;100.00
34925;BME280;21130;51.728;8.748;2022-08-06T01:41:21;101290.59;;;9.15;100.00
34925;BME280;21130;51.728;8.748;2022-08-06T01:44:17;101281.44;;;9.14;100.00
34925;BME280;21130;51.728;8.748;2022-08-06T01:46:47;101292.53;;;9.14;100.00
34925;BME280;21130;51.728;8.748;2022-08-06T01:49:20;101282.72;;;9.18;100.00
34925;BME280;21130;51.728;8.748;2022-08-06T01:51:49;101290.38;;;9.16;100.00
34925;BME280;21130;51.728;8.748;2022-08-06T01:54:16;101288.66;;;9.15;100.00
34925;BME280;21130;51.728;8.748;2022-08-06T01:56:45;101281.44;;;9.14;100.00
34925;BME280;21130;51.728;8.748;2022-08-06T01:59:12;101287.63;;;9.09;100.00
34925;BME280;21130;51.728;8.748;2022-08-06T02:01:40;101289.16;;;9.05;100.00
34925;BME280;21130;51.728;8.748;2022-08-06T02:04:07;101292.56;;;9.01;100.00
34925;BME280;21130;51.728;8.748;2022-08-06T02:06:35;101294.03;;;8.97;100.00
34925;BME280;21130;51.728;8.748;2022-08-06T02:09:04;101291.72;;;8.94;100.00
34925;BME280;21130;51.728;8.748;2022-08-06T02:11:32;101295.97;;;8.90;100.00
34925;BME280;21130;51.728;8.748;2022-08-06T02:14:00;101291.50;;;8.89;100.00
34925;BME280;21130;51.728;8.748;2022-08-06T02:16:30;101294.28;;;8.89;100.00
34925;BME280;21130;51.728;8.748;2022-08-06T02:18:58;101292.97;;;8.84;100.00
34925;BME280;21130;51.728;8.748;2022-08-06T02:21:25;101290.00;;;8.86;100.00
34925;BME280;21130;51.728;8.748;2022-08-06T02:23:51;101294.72;;;8.85;100.00
34925;BME280;21130;51.728;8.748;2022-08-06T02:26:18;101301.28;;;8.84;100.00
34925;BME280;21130;51.728;8.748;2022-08-06T02:28:46;101297.69;;;8.84;100.00
34925;BME280;21130;51.728;8.748;2022-08-06T02:31:13;101304.91;;;8.85;100.00
34925;BME280;21130;51.728;8.748;2022-08-06T02:33:39;101304.06;;;8.84;100.00
34925;BME280;21130;51.728;8.748;2022-08-06T02:38:35;101310.25;;;8.93;100.00
34925;BME280;21130;51.728;8.748;2022-08-06T02:41:11;101311.28;;;8.92;100.00
34925;BME280;21130;51.728;8.748;2022-08-06T02:43:49;101311.72;;;8.89;100.00
34925;BME280;21130;51.728;8.748;2022-08-06T02:47:11;101320.03;;;8.82;100.00
34925;BME280;21130;51.728;8.748;2022-08-06T02:49:41;101326.44;;;8.83;100.00
34925;BME280;21130;51.728;8.748;2022-08-06T02:52:16;101318.31;;;8.75;100.00
34925;BME280;21130;51.728;8.748;2022-08-06T02:54:49;101321.94;;;8.69;100.00
34925;BME280;21130;51.728;8.748;2022-08-06T02:57:21;101326.19;;;8.64;100.00
34925;BME280;21130;51.728;8.748;2022-08-06T02:59:52;101324.50;;;8.63;100.00
34925;BME280;21130;51.728;8.748;2022-08-06T03:02:19;101326.19;;;8.64;100.00
34925;BME280;21130;51.728;8.748;2022-08-06T03:04:48;101332.16;;;8.61;100.00
34925;BME280;21130;51.728;8.748;2022-08-06T03:07:16;101329.59;;;8.60;100.00
34925;BME280;21130;51.728;8.748;2022-08-06T03:09:46;101331.72;;;8.64;100.00
34925;BME280;21130;51.728;8.748;2022-08-06T03:12:13;101328.75;;;8.59;100.00
34925;BME280;21130;51.728;8.748;2022-08-06T03:14:40;101335.78;;;8.62;100.00
34925;BME280;21130;51.728;8.748;2022-08-06T03:17:07;101337.91;;;8.60;100.00
34925;BME280;21130;51.728;8.748;2022-08-06T03:19:37;101342.38;;;8.61;100.00
34925;BME280;21130;51.728;8.748;2022-08-06T03:22:03;101355.78;;;8.57;100.00
34925;BME280;21130;51.728;8.748;2022-08-06T03:24:30;101359.63;;;8.56;100.00
34925;BME280;21130;51.728;8.748;2022-08-06T03:26:59;101355.56;;;8.52;100.00
34925;BME280;21130;51.728;8.748;2022-08-06T03:29:26;101352.16;;;8.50;100.00
34925;BME280;21130;51.728;8.748;2022-08-06T03:31:53;101359.81;;;8.41;100.00
34925;BME280;21130;51.728;8.748;2022-08-06T03:34:18;101361.47;;;8.36;100.00
34925;BME280;21130;51.728;8.748;2022-08-06T03:36:44;101371.47;;;8.30;100.00
34925;BME280;21130;51.728;8.748;2022-08-06T03:39:11;101366.56;;;8.26;100.00
34925;BME280;21130;51.728;8.748;2022-08-06T03:41:39;101374.41;;;8.22;100.00
34925;BME280;21130;51.728;8.748;2022-08-06T03:44:05;101370.34;;;8.18;100.00
34925;BME280;21130;51.728;8.748;2022-08-06T03:46:37;101375.66;;;8.13;100.00
34925;BME280;21130;51.728;8.748;2022-08-06T03:49:05;101377.97;;;8.09;100.00
34925;BME280;21130;51.728;8.748;2022-08-06T03:51:32;101366.72;;;8.11;100.00
34925;BME280;21130;51.728;8.748;2022-08-06T03:54:00;101369.06;;;8.14;100.00
34925;BME280;21130;51.728;8.748;2022-08-06T03:56:27;101375.00;;;8.11;100.00
34925;BME280;21130;51.728;8.748;2022-08-06T03:58:54;101390.53;;;8.12;100.00
34925;BME280;21130;51.728;8.748;2022-08-06T04:01:23;101383.06;;;8.06;100.00
34925;BME280;21130;51.728;8.748;2022-08-06T04:03:51;101391.56;;;8.04;100.00
34925;BME280;21130;51.728;8.748;2022-08-06T04:06:19;101402.19;;;8.07;100.00
34925;BME280;21130;51.728;8.748;2022-08-06T04:08:46;101396.06;;;8.05;100.00
34925;BME280;21130;51.728;8.748;2022-08-06T04:11:12;101390.91;;;8.02;100.00
34925;BME280;21130;51.728;8.748;2022-08-06T04:13:39;101407.31;;;8.04;100.00
34925;BME280;21130;51.728;8.748;2022-08-06T04:16:05;101405.19;;;8.06;100.00
34925;BME280;21130;51.728;8.748;2022-08-06T04:18:37;101409.66;;;8.07;100.00
34925;BME280;21130;51.728;8.748;2022-08-06T04:21:08;101405.41;;;8.11;100.00
34925;BME280;21130;51.728;8.748;2022-08-06T04:23:33;101404.34;;;8.12;100.00
34925;BME280;21130;51.728;8.748;2022-08-06T04:26:02;101411.59;;;8.13;100.00
34925;BME280;21130;51.728;8.748;2022-08-06T04:28:30;101406.06;;;8.13;100.00
34925;BME280;21130;51.728;8.748;2022-08-06T04:30:57;101410.53;;;8.14;100.00
34925;BME280;21130;51.728;8.748;2022-08-06T04:33:26;101419.25;;;8.17;100.00
34925;BME280;21130;51.728;8.748;2022-08-06T04:35:52;101429.03;;;8.20;100.00
34925;BME280;21130;51.728;8.748;2022-08-06T04:38:20;101430.16;;;8.26;100.00
34925;BME280;21130;51.728;8.748;2022-08-06T04:40:47;101420.78;;;8.27;100.00
34925;BME280;21130;51.728;8.748;2022-08-06T04:43:14;101438.47;;;8.32;100.00
34925;BME280;21130;51.728;8.748;2022-08-06T04:45:40;101438.69;;;8.37;100.00
34925;BME280;21130;51.728;8.748;2022-08-06T04:48:08;101441.31;;;8.46;100.00
34925;BME280;21130;51.728;8.748;2022-08-06T04:50:35;101440.94;;;8.55;100.00
34925;BME280;21130;51.728;8.748;2022-08-06T04:53:09;101439.47;;;8.66;100.00
34925;BME280;21130;51.728;8.748;2022-08-06T04:55:35;101447.78;;;8.79;100.00
34925;BME280;21130;51.728;8.748;2022-08-06T04:58:02;101447.56;;;8.87;100.00
34925;BME280;21130;51.728;8.748;2022-08-06T05:00:28;101450.56;;;8.93;100.00
34925;BME280;21130;51.728;8.748;2022-08-06T05:02:53;101455.06;;;9.00;100.00
34925;BME280;21130;51.728;8.748;2022-08-06T05:05:20;101454.00;;;9.08;100.00
34925;BME280;21130;51.728;8.748;2022-08-06T05:07:47;101454.84;;;9.22;100.00
34925;BME280;21130;51.728;8.748;2022-08-06T05:10:12;101458.25;;;9.37;100.00
34925;BME280;21130;51.728;8.748;2022-08-06T05:12:43;101463.81;;;9.44;100.00
34925;BME280;21130;51.728;8.748;2022-08-06T05:15:15;101461.44;;;9.54;100.00
34925;BME280;21130;51.728;8.748;2022-08-06T05:17:45;101466.31;;;9.65;100.00
34925;BME280;21130;51.728;8.748;2022-08-06T05:20:16;101475.72;;;9.71;100.00
34925;BME280;21130;51.728;8.748;2022-08-06T05:22:43;101470.16;;;9.78;100.00
34925;BME280;21130;51.728;8.748;2022-08-06T05:25:10;101470.13;;;9.91;100.00
34925;BME280;21130;51.728;8.748;2022-08-06T05:27:35;101464.34;;;10.06;100.00
34925;BME280;21130;51.728;8.748;2022-08-06T05:30:05;101468.31;;;10.23;100.00
34925;BME280;21130;51.728;8.748;2022-08-06T05:32:30;101478.78;;;10.34;100.00
34925;BME280;21130;51.728;8.748;2022-08-06T05:34:55;101479.78;;;10.47;100.00
34925;BME280;21130;51.728;8.748;2022-08-06T05:37:21;101474.16;;;10.60;100.00
34925;BME280;21130;51.728;8.748;2022-08-06T05:39:46;101475.16;;;10.72;100.00
34925;BME280;21130;51.728;8.748;2022-08-06T05:42:11;101477.25;;;10.84;100.00
34925;BME280;21130;51.728;8.748;2022-08-06T05:44:36;101469.84;;;11.02;100.00
34925;BME280;21130;51.728;8.748;2022-08-06T05:47:06;101480.69;;;11.11;100.00
34925;BME280;21130;51.728;8.748;2022-08-06T05:49:39;101483.78;;;11.28;100.00
34925;BME280;21130;51.728;8.748;2022-08-06T05:52:15;101477.25;;;11.40;100.00
34925;BME280;21130;51.728;8.748;2022-08-06T05:57:21;101480.03;;;11.65;98.10
34925;BME280;21130;51.728;8.748;2022-08-06T05:59:54;101492.50;;;11.81;97.09
34925;BME280;21130;51.728;8.748;2022-08-06T06:02:30;101491.47;;;12.01;96.51
34925;BME280;21130;51.728;8.748;2022-08-06T06:04:57;101502.00;;;12.17;94.64
34925;BME280;21130;51.728;8.748;2022-08-06T06:07:23;101502.94;;;12.29;92.95
34925;BME280;21130;51.728;8.748;2022-08-06T06:09:49;101493.16;;;12.39;92.36
34925;BME280;21130;51.728;8.748;2022-08-06T06:12:14;101495.56;;;12.53;90.57
34925;BME280;21130;51.728;8.748;2022-08-06T06:14:42;101500.97;;;12.67;90.12
34925;BME280;21130;51.728;8.748;2022-08-06T06:17:23;101501.00;;;12.79;89.20
34925;BME280;21130;51.728;8.748;2022-08-06T06:20:00;101494.78;;;12.95;87.22
34925;BME280;21130;51.728;8.748;2022-08-06T06:22:30;101494.94;;;13.00;86.56
34925;BME280;21130;51.728;8.748;2022-08-06T06:25:12;101495.56;;;13.14;84.66
34925;BME280;21130;51.728;8.748;2022-08-06T06:27:53;101498.28;;;13.21;83.43
34925;BME280;21130;51.728;8.748;2022-08-06T06:30:30;101502.69;;;13.28;83.07
34925;BME280;21130;51.728;8.748;2022-08-06T06:35:53;101508.59;;;13.62;82.75
34925;BME280;21130;51.728;8.748;2022-08-06T06:38:42;101514.75;;;13.76;80.60
34925;BME280;21130;51.728;8.748;2022-08-06T06:41:16;101503.97;;;13.79;81.49
34925;BME280;21130;51.728;8.748;2022-08-06T06:43:45;101511.84;;;13.94;80.13
34925;BME280;21130;51.728;8.748;2022-08-06T06:49:03;101525.94;;;14.23;78.90
34925;BME280;21130;51.728;8.748;2022-08-06T06:51:35;101513.03;;;14.45;79.03
34925;BME280;21130;51.728;8.748;2022-08-06T06:54:02;101523.59;;;14.32;76.77
34925;BME280;21130;51.728;8.748;2022-08-06T06:56:36;101526.88;;;14.40;76.63
34925;BME280;21130;51.728;8.748;2022-08-06T06:59:11;101521.25;;;14.64;76.65
34925;BME280;21130;51.728;8.748;2022-08-06T07:01:57;101531.91;;;14.79;77.18
34925;BME280;21130;51.728;8.748;2022-08-06T07:04:25;101527.00;;;14.98;74.67
34925;BME280;21130;51.728;8.748;2022-08-06T07:06:53;101528.16;;;15.02;74.42
34925;BME280;21130;51.728;8.748;2022-08-06T07:09:24;101537.44;;;15.19;74.63
34925;BME280;21130;51.728;8.748;2022-08-06T07:11:52;101531.66;;;15.38;74.28
34925;BME280;21130;51.728;8.748;2022-08-06T07:14:20;101536.22;;;15.44;72.47
34925;BME280;21130;51.728;8.748;2022-08-06T07:16:47;101538.78;;;15.62;71.58
34925;BME280;21130;51.728;8.748;2022-08-06T07:19:15;101537.78;;;15.68;71.41
34925;BME280;21130;51.728;8.748;2022-08-06T07:21:43;101543.75;;;15.72;72.53
34925;BME280;21130;51.728;8.748;2022-08-06T07:24:11;101536.88;;;15.80;70.22
34925;BME280;21130;51.728;8.748;2022-08-06T07:26:37;101548.09;;;15.51;71.40
34925;BME280;21130;51.728;8.748;2022-08-06T07:29:03;101548.97;;;15.68;71.45
34925;BME280;21130;51.728;8.748;2022-08-06T07:31:29;101538.13;;;15.55;70.34
34925;BME280;21130;51.728;8.748;2022-08-06T07:33:54;101547.97;;;15.74;71.08
34925;BME280;21130;51.728;8.748;2022-08-06T07:36:23;101550.03;;;15.79;72.39
34925;BME280;21130;51.728;8.748;2022-08-06T07:38:50;101547.47;;;16.11;70.24
34925;BME280;21130;51.728;8.748;2022-08-06T07:41:18;101547.50;;;16.33;69.39
34925;BME280;21130;51.728;8.748;2022-08-06T07:44:05;101550.06;;;16.57;68.24
34925;BME280;21130;51.728;8.748;2022-08-06T07:46:38;101547.78;;;16.54;66.72
34925;BME280;21130;51.728;8.748;2022-08-06T07:49:06;101554.84;;;16.56;67.15
34925;BME280;21130;51.728;8.748;2022-08-06T07:51:37;101557.50;;;16.46;67.68
34925;BME280;21130;51.728;8.748;2022-08-06T07:54:05;101553.22;;;16.60;68.01
34925;BME280;21130;51.728;8.748;2022-08-06T07:56:34;101548.56;;;16.88;68.52
34925;BME280;21130;51.728;8.748;2022-08-06T07:59:02;101552.81;;;17.18;65.04
34925;BME280;21130;51.728;8.748;2022-08-06T08:01:28;101552.75;;;17.40;64.34
34925;BME280;21130;51.728;8.748;2022-08-06T08:03:54;101542.16;;;17.20;65.68
34925;BME280;21130;51.728;8.748;2022-08-06T08:06:39;101551.97;;;17.44;63.76
34925;BME280;21130;51.728;8.748;2022-08-06T08:09:14;101553.28;;;17.64;64.34
34925;BME280;21130;51.728;8.748;2022-08-06T08:11:42;101553.03;;;17.70;63.91
34925;BME280;21130;51.728;8.748;2022-08-06T08:14:14;101558.34;;;17.67;63.96
34925;BME280;21130;51.728;8.748;2022-08-06T08:16:42;101558.84;;;17.59;63.28
34925;BME280;21130;51.728;8.748;2022-08-06T08:19:31;101568.47;;;17.68;64.03
34925;BME280;21130;51.728;8.748;2022-08-06T08:22:02;101557.88;;;17.75;62.36
34925;BME280;21130;51.728;8.748;2022-08-06T08:24:31;101556.88;;;17.59;62.32
34925;BME280;21130;51.728;8.748;2022-08-06T08:26:58;101555.22;;;17.58;61.14
34925;BME280;21130;51.728;8.748;2022-08-06T08:29:24;101556.78;;;17.49;62.37
34925;BME280;21130;51.728;8.748;2022-08-06T08:31:49;101554.41;;;17.95;60.90
34925;BME280;21130;51.728;8.748;2022-08-06T08:34:15;101550.97;;;18.25;60.61
34925;BME280;21130;51.728;8.748;2022-08-06T08:36:41;101549.03;;;17.88;60.85
34925;BME280;21130;51.728;8.748;2022-08-06T08:39:06;101553.75;;;17.83;60.77
34925;BME280;21130;51.728;8.748;2022-08-06T08:41:53;101559.75;;;17.64;63.51
34925;BME280;21130;51.728;8.748;2022-08-06T08:44:24;101559.53;;;17.17;62.83
34925;BME280;21130;51.728;8.748;2022-08-06T08:46:51;101560.63;;;16.72;64.11
34925;BME280;21130;51.728;8.748;2022-08-06T08:52:13;101561.88;;;17.25;65.02
34925;BME280;21130;51.728;8.748;2022-08-06T08:54:42;101561.34;;;17.28;59.65
34925;BME280;21130;51.728;8.748;2022-08-06T08:57:10;101555.63;;;18.04;60.07
34925;BME280;21130;51.728;8.748;2022-08-06T08:59:36;101560.63;;;18.87;58.39
34925;BME280;21130;51.728;8.748;2022-08-06T09:02:04;101552.63;;;19.47;52.54
34925;BME280;21130;51.728;8.748;2022-08-06T09:04:32;101557.19;;;20.04;50.32
34925;BME280;21130;51.728;8.748;2022-08-06T09:06:57;101553.53;;;20.14;52.13
34925;BME280;21130;51.728;8.748;2022-08-06T09:09:23;101552.59;;;20.60;49.46
34925;BME280;21130;51.728;8.748;2022-08-06T09:11:49;101549.16;;;20.73;51.72
34925;BME280;21130;51.728;8.748;2022-08-06T09:14:15;101550.56;;;21.30;46.86
34925;BME280;21130;51.728;8.748;2022-08-06T09:16:40;101550.59;;;21.25;46.17
34925;BME280;21130;51.728;8.748;2022-08-06T09:19:06;101544.47;;;21.92;46.07
34925;BME280;21130;51.728;8.748;2022-08-06T09:21:32;101551.28;;;21.91;46.33
34925;BME280;21130;51.728;8.748;2022-08-06T09:23:58;101549.00;;;21.58;46.19
34925;BME280;21130;51.728;8.748;2022-08-06T09:26:24;101540.34;;;21.45;45.42
34925;BME280;21130;51.728;8.748;2022-08-06T09:28:49;101548.06;;;20.64;44.83
34925;BME280;21130;51.728;8.748;2022-08-06T09:31:20;101552.66;;;20.24;47.80
34925;BME280;21130;51.728;8.748;2022-08-06T09:33:59;101551.25;;;20.01;44.91
34925;BME280;21130;51.728;8.748;2022-08-06T09:36:25;101547.38;;;20.98;44.46
34925;BME280;21130;51.728;8.748;2022-08-06T09:38:58;101551.09;;;20.83;44.74
34925;BME280;21130;51.728;8.748;2022-08-06T09:41:29;101560.59;;;20.06;47.59
34925;BME280;21130;51.728;8.748;2022-08-06T09:43:56;101560.53;;;20.32;48.56
34925;BME280;21130;51.728;8.748;2022-08-06T09:46:42;101553.50;;;21.94;44.22
34925;BME280;21130;51.728;8.748;2022-08-06T09:49:09;101549.13;;;23.32;40.20
34925;BME280;21130;51.728;8.748;2022-08-06T09:51:36;101550.28;;;23.31;39.62
34925;BME280;21130;51.728;8.748;2022-08-06T09:54:04;101547.22;;;23.84;37.67
34925;BME280;21130;51.728;8.748;2022-08-06T09:56:32;101552.97;;;24.12;38.64
34925;BME280;21130;51.728;8.748;2022-08-06T09:59:15;101556.06;;;23.97;37.46
34925;BME280;21130;51.728;8.748;2022-08-06T10:01:43;101551.28;;;23.78;37.88
34925;BME280;21130;51.728;8.748;2022-08-06T10:04:26;101548.50;;;23.92;38.24
34925;BME280;21130;51.728;8.748;2022-08-06T10:07:01;101558.94;;;22.25;42.82
34925;BME280;21130;51.728;8.748;2022-08-06T10:09:27;101560.38;;;21.88;43.62
34925;BME280;21130;51.728;8.748;2022-08-06T10:11:53;101557.59;;;21.43;45.20
34925;BME280;21130;51.728;8.748;2022-08-06T10:17:20;101560.44;;;21.33;44.33
34925;BME280;21130;51.728;8.748;2022-08-06T10:20:03;101554.00;;;21.67;44.38
34925;BME280;21130;51.728;8.748;2022-08-06T10:22:29;101561.16;;;23.05;41.08
34925;BME280;21130;51.728;8.748;2022-08-06T10:24:55;101552.84;;;24.03;39.37
34925;BME280;21130;51.728;8.748;2022-08-06T10:27:25;101545.44;;;23.69;38.29
34925;BME280;21130;51.728;8.748;2022-08-06T10:29:55;101542.41;;;24.31;38.68
34925;BME280;21130;51.728;8.748;2022-08-06T10:32:29;101541.16;;;24.93;36.97
34925;BME280;21130;51.728;8.748;2022-08-06T10:35:00;101537.91;;;24.30;36.54
34925;BME280;21130;51.728;8.748;2022-08-06T10:37:27;101538.81;;;24.40;36.67
34925;BME280;21130;51.728;8.748;2022-08-06T10:39:58;101544.34;;;24.64;36.35
34925;BME280;21130;51.728;8.748;2022-08-06T10:42:25;101547.53;;;24.29;37.01
34925;BME280;21130;51.728;8.748;2022-08-06T10:44:50;101544.16;;;23.05;40.72
34925;BME280;21130;51.728;8.748;2022-08-06T10:47:16;101549.78;;;22.57;41.91
34925;BME280;21130;51.728;8.748;2022-08-06T10:49:43;101547.16;;;22.12;41.68
34925;BME280;21130;51.728;8.748;2022-08-06T10:52:10;101544.84;;;21.46;42.35
34925;BME280;21130;51.728;8.748;2022-08-06T10:54:37;101548.19;;;19.82;44.12
34925;BME280;21130;51.728;8.748;2022-08-06T10:57:04;101551.56;;;19.89;44.19
34925;BME280;21130;51.728;8.748;2022-08-06T10:59:30;101549.81;;;20.34;46.17
34925;BME280;21130;51.728;8.748;2022-08-06T11:02:03;101546.94;;;21.25;45.40
34925;BME280;21130;51.728;8.748;2022-08-06T11:04:46;101529.88;;;22.14;42.72
34925;BME280;21130;51.728;8.748;2022-08-06T11:07:29;101536.06;;;22.93;39.88
34925;BME280;21130;51.728;8.748;2022-08-06T11:12:53;101528.44;;;23.69;38.10
34925;BME280;21130;51.728;8.748;2022-08-06T11:15:20;101529.94;;;23.10;39.30
34925;BME280;21130;51.728;8.748;2022-08-06T11:18:05;101539.69;;;22.75;40.39
34925;BME280;21130;51.728;8.748;2022-08-06T11:22:57;101538.03;;;21.86;42.88
34925;BME280;21130;51.728;8.748;2022-08-06T11:25:44;101534.28;;;21.17;43.51
34925;BME280;21130;51.728;8.748;2022-08-06T11:28:12;101537.69;;;21.09;45.22
34925;BME280;21130;51.728;8.748;2022-08-06T11:30:45;101533.00;;;20.89;44.33
34925;BME280;21130;51.728;8.748;2022-08-06T11:33:14;101533.28;;;20.92;44.80
34925;BME280;21130;51.728;8.748;2022-08-06T11:35:41;101527.97;;;20.81;43.44
34925;BME280;21130;51.728;8.748;2022-08-06T11:38:11;101536.63;;;21.54;43.81
34925;BME280;21130;51.728;8.748;2022-08-06T11:41:09;101519.19;;;21.76;40.48
34925;BME280;21130;51.728;8.748;2022-08-06T11:59:30;101527.88;;;23.67;35.16
34925;BME280;21130;51.728;8.748;2022-08-06T12:01:56;101526.94;;;22.77;33.05
34925;BME280;21130;51.728;8.748;2022-08-06T12:07:19;101522.97;;;21.96;37.19
34925;BME280;21130;51.728;8.748;2022-08-06T12:12:41;101521.25;;;22.29;33.29
34925;BME280;21130;51.728;8.748;2022-08-06T12:20:42;101515.22;;;23.27;33.27
34925;BME280;21130;51.728;8.748;2022-08-06T12:23:13;101520.59;;;23.28;32.12
34925;BME280;21130;51.728;8.748;2022-08-06T12:25:41;101513.41;;;22.93;34.18
34925;BME280;21130;51.728;8.748;2022-08-06T12:28:08;101509.56;;;22.84;34.65
34925;BME280;21130;51.728;8.748;2022-08-06T12:30:45;101507.44;;;22.28;34.80
34925;BME280;21130;51.728;8.748;2022-08-06T12:33:12;101508.00;;;21.95;34.93
34925;BME280;21130;51.728;8.748;2022-08-06T12:36:00;101505.75;;;22.51;36.73
34925;BME280;21130;51.728;8.748;2022-08-06T12:38:30;101503.34;;;23.44;31.58
34925;BME280;21130;51.728;8.748;2022-08-06T12:41:03;101495.78;;;23.72;31.15
34925;BME280;21130;51.728;8.748;2022-08-06T12:43:33;101494.72;;;23.87;32.09
34925;BME280;21130;51.728;8.748;2022-08-06T12:46:07;101501.41;;;24.24;33.16
34925;BME280;21130;51.728;8.748;2022-08-06T12:48:34;101481.81;;;24.69;31.18
34925;BME280;21130;51.728;8.748;2022-08-06T12:51:08;101484.78;;;25.00;32.83
34925;BME280;21130;51.728;8.748;2022-08-06T12:53:47;101482.31;;;26.02;30.54
34925;BME280;21130;51.728;8.748;2022-08-06T12:56:15;101481.47;;;25.79;28.51
34925;BME280;21130;51.728;8.748;2022-08-06T12:58:41;101478.66;;;25.20;30.17
34925;BME280;21130;51.728;8.748;2022-08-06T13:01:12;101478.84;;;24.60;32.00
34925;BME280;21130;51.728;8.748;2022-08-06T13:03:41;101485.56;;;24.36;32.22
34925;BME280;21130;51.728;8.748;2022-08-06T13:06:08;101480.50;;;24.06;33.24
34925;BME280;21130;51.728;8.748;2022-08-06T13:08:35;101484.34;;;23.44;29.97
34925;BME280;21130;51.728;8.748;2022-08-06T13:11:02;101483.88;;;22.56;33.62
34925;BME280;21130;51.728;8.748;2022-08-06T13:13:57;101489.34;;;21.94;32.33
34925;BME280;21130;51.728;8.748;2022-08-06T13:16:37;101475.66;;;22.07;33.03
34925;BME280;21130;51.728;8.748;2022-08-06T13:19:05;101482.69;;;22.09;34.34
34925;BME280;21130;51.728;8.748;2022-08-06T13:21:31;101477.31;;;23.42;32.49
34925;BME280;21130;51.728;8.748;2022-08-06T13:23:56;101470.72;;;24.12;31.13
34925;BME280;21130;51.728;8.748;2022-08-06T13:26:26;101461.09;;;24.68;30.20
34925;BME280;21130;51.728;8.748;2022-08-06T13:29:08;101477.19;;;25.09;28.80
34925;BME280;21130;51.728;8.748;2022-08-06T13:31:35;101461.22;;;25.13;31.09
34925;BME280;21130;51.728;8.748;2022-08-06T13:34:02;101467.25;;;25.79;27.40
34925;BME280;21130;51.728;8.748;2022-08-06T13:36:29;101465.00;;;25.68;28.43
34925;BME280;21130;51.728;8.748;2022-08-06T13:38:55;101467.00;;;26.61;27.69
34925;BME280;21130;51.728;8.748;2022-08-06T13:41:26;101464.41;;;26.90;26.92
34925;BME280;21130;51.728;8.748;2022-08-06T13:43:51;101459.13;;;26.18;26.98
34925;BME280;21130;51.728;8.748;2022-08-06T13:46:17;101468.94;;;27.00;28.38
34925;BME280;21130;51.728;8.748;2022-08-06T13:48:50;101459.53;;;26.34;27.69
34925;BME280;21130;51.728;8.748;2022-08-06T13:51:17;101458.88;;;26.37;29.45
34925;BME280;21130;51.728;8.748;2022-08-06T13:53:43;101460.06;;;27.10;28.72
34925;BME280;21130;51.728;8.748;2022-08-06T13:56:09;101451.53;;;27.45;28.16
34925;BME280;21130;51.728;8.748;2022-08-06T13:58:41;101461.19;;;25.95;27.97
34925;BME280;21130;51.728;8.748;2022-08-06T14:01:06;101442.75;;;25.70;27.84